sensor_id;sensor_type;location;lat;lon;timestamp;P1;durP1;ratioP1;P2;durP2;ratioP2
70832;SDS011;58452;59.418;17.962;2022-07-19T00:00:23;10.30;;;6.45;;
70832;SDS011;58452;59.418;17.962;2022-07-19T00:02:50;11.18;;;7.35;;
70832;SDS011;58452;59.418;17.962;2022-07-19T00:05:16;6.93;;;6.22;;
70832;SDS011;58452;59.418;17.962;2022-07-19T00:07:43;9.18;;;6.50;;
70832;SDS011;58452;59.418;17.962;2022-07-19T00:10:10;11.43;;;6.25;;
70832;SDS011;58452;59.418;17.962;2022-07-19T00:12:38;7.40;;;6.55;;
70832;SDS011;58452;59.418;17.962;2022-07-19T00:15:04;8.88;;;6.80;;
70832;SDS011;58452;59.418;17.962;2022-07-19T00:17:32;9.50;;;7.22;;
70832;SDS011;58452;59.418;17.962;2022-07-19T00:19:58;10.45;;;7.05;;
70832;SDS011;58452;59.418;17.962;2022-07-19T00:22:23;6.97;;;6.13;;
70832;SDS011;58452;59.418;17.962;2022-07-19T00:24:49;10.43;;;6.43;;
70832;SDS011;58452;59.418;17.962;2022-07-19T00:27:14;8.70;;;6.22;;
70832;SDS011;58452;59.418;17.962;2022-07-19T00:29:40;8.88;;;6.63;;
70832;SDS011;58452;59.418;17.962;2022-07-19T00:32:05;7.97;;;6.13;;
70832;SDS011;58452;59.418;17.962;2022-07-19T00:34:31;9.38;;;6.05;;
70832;SDS011;58452;59.418;17.962;2022-07-19T00:36:56;10.95;;;6.53;;
70832;SDS011;58452;59.418;17.962;2022-07-19T00:39:21;7.72;;;6.00;;
70832;SDS011;58452;59.418;17.962;2022-07-19T00:41:47;7.53;;;6.68;;
70832;SDS011;58452;59.418;17.962;2022-07-19T00:44:12;11.10;;;7.63;;
70832;SDS011;58452;59.418;17.962;2022-07-19T00:46:38;7.43;;;6.65;;
70832;SDS011;58452;59.418;17.962;2022-07-19T00:49:03;10.00;;;7.03;;
70832;SDS011;58452;59.418;17.962;2022-07-19T00:51:30;8.77;;;6.75;;
70832;SDS011;58452;59.418;17.962;2022-07-19T00:53:59;9.00;;;6.57;;
70832;SDS011;58452;59.418;17.962;2022-07-19T00:56:25;12.52;;;7.22;;
70832;SDS011;58452;59.418;17.962;2022-07-19T00:58:52;9.93;;;7.18;;
70832;SDS011;58452;59.418;17.962;2022-07-19T01:01:18;8.18;;;6.05;;
70832;SDS011;58452;59.418;17.962;2022-07-19T01:03:44;10.30;;;6.47;;
70832;SDS011;58452;59.418;17.962;2022-07-19T01:06:12;9.02;;;6.35;;
70832;SDS011;58452;59.418;17.962;2022-07-19T01:08:37;8.35;;;5.80;;
70832;SDS011;58452;59.418;17.962;2022-07-19T01:11:03;8.23;;;6.22;;
70832;SDS011;58452;59.418;17.962;2022-07-19T01:13:30;9.85;;;6.88;;
70832;SDS011;58452;59.418;17.962;2022-07-19T01:15:57;7.70;;;6.35;;
70832;SDS011;58452;59.418;17.962;2022-07-19T01:18:22;7.78;;;6.53;;
70832;SDS011;58452;59.418;17.962;2022-07-19T01:20:48;9.02;;;6.78;;
70832;SDS011;58452;59.418;17.962;2022-07-19T01:23:14;12.70;;;7.18;;
70832;SDS011;58452;59.418;17.962;2022-07-19T01:25:40;8.73;;;6.57;;
70832;SDS011;58452;59.418;17.962;2022-07-19T01:28:06;8.98;;;6.93;;
70832;SDS011;58452;59.418;17.962;2022-07-19T01:30:32;8.55;;;6.85;;
70832;SDS011;58452;59.418;17.962;2022-07-19T01:32:58;8.82;;;6.30;;
70832;SDS011;58452;59.418;17.962;2022-07-19T01:35:24;8.38;;;6.38;;
70832;SDS011;58452;59.418;17.962;2022-07-19T01:37:49;10.73;;;6.88;;
70832;SDS011;58452;59.418;17.962;2022-07-19T01:40:16;7.45;;;6.53;;
70832;SDS011;58452;59.418;17.962;2022-07-19T01:42:42;8.55;;;6.70;;
70832;SDS011;58452;59.418;17.962;2022-07-19T01:45:08;12.50;;;7.22;;
70832;SDS011;58452;59.418;17.962;2022-07-19T01:47:35;7.63;;;6.70;;
70832;SDS011;58452;59.418;17.962;2022-07-19T01:50:01;8.60;;;6.82;;
70832;SDS011;58452;59.418;17.962;2022-07-19T01:52:27;7.30;;;6.47;;
70832;SDS011;58452;59.418;17.962;2022-07-19T01:54:52;7.60;;;6.30;;
70832;SDS011;58452;59.418;17.962;2022-07-19T01:57:18;11.32;;;6.47;;
70832;SDS011;58452;59.418;17.962;2022-07-19T01:59:43;7.88;;;6.38;;
70832;SDS011;58452;59.418;17.962;2022-07-19T02:02:09;7.28;;;6.20;;
70832;SDS011;58452;59.418;17.962;2022-07-19T02:04:34;6.88;;;5.90;;
70832;SDS011;58452;59.418;17.962;2022-07-19T02:07:00;10.40;;;6.55;;
70832;SDS011;58452;59.418;17.962;2022-07-19T02:09:25;7.45;;;5.82;;
70832;SDS011;58452;59.418;17.962;2022-07-19T02:11:51;7.72;;;6.57;;
70832;SDS011;58452;59.418;17.962;2022-07-19T02:14:16;11.05;;;6.75;;
70832;SDS011;58452;59.418;17.962;2022-07-19T02:16:43;10.32;;;7.75;;
70832;SDS011;58452;59.418;17.962;2022-07-19T02:19:09;9.10;;;6.82;;
70832;SDS011;58452;59.418;17.962;2022-07-19T02:21:35;8.73;;;6.13;;
70832;SDS011;58452;59.418;17.962;2022-07-19T02:24:02;7.70;;;6.90;;
70832;SDS011;58452;59.418;17.962;2022-07-19T02:26:29;12.88;;;6.75;;
70832;SDS011;58452;59.418;17.962;2022-07-19T02:28:54;9.48;;;6.38;;
70832;SDS011;58452;59.418;17.962;2022-07-19T02:31:20;6.68;;;6.07;;
70832;SDS011;58452;59.418;17.962;2022-07-19T02:33:45;10.90;;;6.68;;
70832;SDS011;58452;59.418;17.962;2022-07-19T02:36:11;9.43;;;5.93;;
70832;SDS011;58452;59.418;17.962;2022-07-19T02:38:37;11.30;;;6.78;;
70832;SDS011;58452;59.418;17.962;2022-07-19T02:41:02;7.65;;;6.75;;
70832;SDS011;58452;59.418;17.962;2022-07-19T02:43:28;10.40;;;6.78;;
70832;SDS011;58452;59.418;17.962;2022-07-19T02:45:53;8.30;;;6.90;;
70832;SDS011;58452;59.418;17.962;2022-07-19T02:48:19;9.75;;;6.93;;
70832;SDS011;58452;59.418;17.962;2022-07-19T02:50:44;8.23;;;7.32;;
70832;SDS011;58452;59.418;17.962;2022-07-19T02:53:10;9.15;;;7.13;;
70832;SDS011;58452;59.418;17.962;2022-07-19T02:55:35;9.15;;;6.30;;
70832;SDS011;58452;59.418;17.962;2022-07-19T02:58:01;10.65;;;7.10;;
70832;SDS011;58452;59.418;17.962;2022-07-19T03:00:27;6.82;;;6.13;;
70832;SDS011;58452;59.418;17.962;2022-07-19T03:02:52;9.30;;;6.65;;
70832;SDS011;58452;59.418;17.962;2022-07-19T03:05:18;8.77;;;6.68;;
70832;SDS011;58452;59.418;17.962;2022-07-19T03:07:43;8.25;;;6.93;;
70832;SDS011;58452;59.418;17.962;2022-07-19T03:10:08;9.10;;;7.28;;
70832;SDS011;58452;59.418;17.962;2022-07-19T03:12:34;9.70;;;8.75;;
70832;SDS011;58452;59.418;17.962;2022-07-19T03:15:00;12.13;;;8.00;;
70832;SDS011;58452;59.418;17.962;2022-07-19T03:17:25;11.38;;;7.40;;
70832;SDS011;58452;59.418;17.962;2022-07-19T03:19:51;12.15;;;7.35;;
70832;SDS011;58452;59.418;17.962;2022-07-19T03:22:16;9.23;;;7.00;;
70832;SDS011;58452;59.418;17.962;2022-07-19T03:24:42;13.98;;;7.55;;
70832;SDS011;58452;59.418;17.962;2022-07-19T03:27:07;7.68;;;6.05;;
70832;SDS011;58452;59.418;17.962;2022-07-19T03:29:33;9.63;;;7.93;;
70832;SDS011;58452;59.418;17.962;2022-07-19T03:31:58;8.82;;;6.50;;
70832;SDS011;58452;59.418;17.962;2022-07-19T03:34:24;9.82;;;6.53;;
70832;SDS011;58452;59.418;17.962;2022-07-19T03:36:50;10.52;;;7.25;;
70832;SDS011;58452;59.418;17.962;2022-07-19T03:39:15;8.75;;;7.38;;
70832;SDS011;58452;59.418;17.962;2022-07-19T03:41:41;11.57;;;7.72;;
70832;SDS011;58452;59.418;17.962;2022-07-19T03:44:06;9.65;;;7.80;;
70832;SDS011;58452;59.418;17.962;2022-07-19T03:46:32;11.50;;;8.93;;
70832;SDS011;58452;59.418;17.962;2022-07-19T03:48:58;10.70;;;7.07;;
70832;SDS011;58452;59.418;17.962;2022-07-19T03:51:23;14.02;;;8.80;;
70832;SDS011;58452;59.418;17.962;2022-07-19T03:53:49;17.42;;;9.27;;
70832;SDS011;58452;59.418;17.962;2022-07-19T03:56:15;12.73;;;8.13;;
70832;SDS011;58452;59.418;17.962;2022-07-19T03:58:42;13.15;;;7.47;;
70832;SDS011;58452;59.418;17.962;2022-07-19T04:01:08;14.32;;;8.07;;
70832;SDS011;58452;59.418;17.962;2022-07-19T04:03:37;15.57;;;8.60;;
70832;SDS011;58452;59.418;17.962;2022-07-19T04:06:04;11.50;;;8.45;;
70832;SDS011;58452;59.418;17.962;2022-07-19T04:08:34;10.40;;;7.72;;
70832;SDS011;58452;59.418;17.962;2022-07-19T04:10:59;13.68;;;8.75;;
70832;SDS011;58452;59.418;17.962;2022-07-19T04:13:25;9.25;;;7.78;;
70832;SDS011;58452;59.418;17.962;2022-07-19T04:15:51;14.40;;;8.82;;
70832;SDS011;58452;59.418;17.962;2022-07-19T04:18:16;10.20;;;8.13;;
70832;SDS011;58452;59.418;17.962;2022-07-19T04:20:42;10.80;;;8.48;;
70832;SDS011;58452;59.418;17.962;2022-07-19T04:23:09;10.40;;;7.35;;
70832;SDS011;58452;59.418;17.962;2022-07-19T04:25:35;12.32;;;8.00;;
70832;SDS011;58452;59.418;17.962;2022-07-19T04:28:00;12.77;;;8.23;;
70832;SDS011;58452;59.418;17.962;2022-07-19T04:30:27;12.30;;;7.10;;
70832;SDS011;58452;59.418;17.962;2022-07-19T04:32:52;8.90;;;7.00;;
70832;SDS011;58452;59.418;17.962;2022-07-19T04:35:18;11.93;;;7.80;;
70832;SDS011;58452;59.418;17.962;2022-07-19T04:37:43;13.85;;;7.53;;
70832;SDS011;58452;59.418;17.962;2022-07-19T04:40:09;9.93;;;6.63;;
70832;SDS011;58452;59.418;17.962;2022-07-19T04:42:34;9.15;;;6.72;;
70832;SDS011;58452;59.418;17.962;2022-07-19T04:45:00;13.75;;;7.40;;
70832;SDS011;58452;59.418;17.962;2022-07-19T04:47:26;10.80;;;6.65;;
70832;SDS011;58452;59.418;17.962;2022-07-19T04:49:51;13.88;;;7.72;;
70832;SDS011;58452;59.418;17.962;2022-07-19T04:52:17;13.55;;;7.03;;
70832;SDS011;58452;59.418;17.962;2022-07-19T04:54:42;9.57;;;6.38;;
70832;SDS011;58452;59.418;17.962;2022-07-19T04:57:07;10.63;;;7.07;;
70832;SDS011;58452;59.418;17.962;2022-07-19T04:59:33;11.90;;;7.28;;
70832;SDS011;58452;59.418;17.962;2022-07-19T05:01:58;10.95;;;7.78;;
70832;SDS011;58452;59.418;17.962;2022-07-19T05:04:24;10.45;;;6.60;;
70832;SDS011;58452;59.418;17.962;2022-07-19T05:06:49;14.23;;;7.43;;
70832;SDS011;58452;59.418;17.962;2022-07-19T05:09:16;8.25;;;6.28;;
70832;SDS011;58452;59.418;17.962;2022-07-19T05:11:44;13.35;;;7.00;;
70832;SDS011;58452;59.418;17.962;2022-07-19T05:14:10;14.82;;;7.40;;
70832;SDS011;58452;59.418;17.962;2022-07-19T05:16:35;11.93;;;7.35;;
70832;SDS011;58452;59.418;17.962;2022-07-19T05:19:01;14.07;;;7.10;;
70832;SDS011;58452;59.418;17.962;2022-07-19T05:21:26;9.25;;;6.70;;
70832;SDS011;58452;59.418;17.962;2022-07-19T05:23:52;12.75;;;7.50;;
70832;SDS011;58452;59.418;17.962;2022-07-19T05:26:17;8.52;;;7.10;;
70832;SDS011;58452;59.418;17.962;2022-07-19T05:28:42;12.65;;;6.60;;
70832;SDS011;58452;59.418;17.962;2022-07-19T05:31:08;9.27;;;6.80;;
70832;SDS011;58452;59.418;17.962;2022-07-19T05:33:33;13.93;;;6.97;;
70832;SDS011;58452;59.418;17.962;2022-07-19T05:35:59;10.32;;;6.95;;
70832;SDS011;58452;59.418;17.962;2022-07-19T05:38:24;10.80;;;7.00;;
70832;SDS011;58452;59.418;17.962;2022-07-19T05:40:49;11.50;;;7.45;;
70832;SDS011;58452;59.418;17.962;2022-07-19T05:43:15;10.50;;;7.00;;
70832;SDS011;58452;59.418;17.962;2022-07-19T05:45:40;8.45;;;6.72;;
70832;SDS011;58452;59.418;17.962;2022-07-19T05:48:06;12.93;;;7.57;;
70832;SDS011;58452;59.418;17.962;2022-07-19T05:50:31;13.85;;;8.02;;
70832;SDS011;58452;59.418;17.962;2022-07-19T05:52:56;11.18;;;6.43;;
70832;SDS011;58452;59.418;17.962;2022-07-19T05:55:22;9.20;;;6.97;;
70832;SDS011;58452;59.418;17.962;2022-07-19T05:57:47;12.45;;;6.90;;
70832;SDS011;58452;59.418;17.962;2022-07-19T06:00:13;11.10;;;7.57;;
70832;SDS011;58452;59.418;17.962;2022-07-19T06:02:39;9.52;;;6.80;;
70832;SDS011;58452;59.418;17.962;2022-07-19T06:05:05;8.52;;;6.53;;
70832;SDS011;58452;59.418;17.962;2022-07-19T06:07:31;14.80;;;8.13;;
70832;SDS011;58452;59.418;17.962;2022-07-19T06:09:56;10.27;;;7.47;;
70832;SDS011;58452;59.418;17.962;2022-07-19T06:12:22;11.48;;;6.75;;
70832;SDS011;58452;59.418;17.962;2022-07-19T06:14:47;10.40;;;6.60;;
70832;SDS011;58452;59.418;17.962;2022-07-19T06:17:13;10.90;;;6.90;;
70832;SDS011;58452;59.418;17.962;2022-07-19T06:19:38;9.73;;;6.65;;
70832;SDS011;58452;59.418;17.962;2022-07-19T06:22:03;9.27;;;6.88;;
70832;SDS011;58452;59.418;17.962;2022-07-19T06:24:29;11.02;;;6.78;;
70832;SDS011;58452;59.418;17.962;2022-07-19T06:26:54;11.93;;;7.20;;
70832;SDS011;58452;59.418;17.962;2022-07-19T06:29:20;11.15;;;7.53;;
70832;SDS011;58452;59.418;17.962;2022-07-19T06:31:45;9.02;;;5.90;;
70832;SDS011;58452;59.418;17.962;2022-07-19T06:34:10;6.45;;;5.55;;
70832;SDS011;58452;59.418;17.962;2022-07-19T06:36:36;8.00;;;6.13;;
70832;SDS011;58452;59.418;17.962;2022-07-19T06:39:01;9.23;;;6.45;;
70832;SDS011;58452;59.418;17.962;2022-07-19T06:41:27;8.23;;;5.93;;
70832;SDS011;58452;59.418;17.962;2022-07-19T06:43:52;14.02;;;7.60;;
70832;SDS011;58452;59.418;17.962;2022-07-19T06:46:17;7.97;;;5.40;;
70832;SDS011;58452;59.418;17.962;2022-07-19T06:48:43;8.70;;;5.68;;
70832;SDS011;58452;59.418;17.962;2022-07-19T06:51:08;9.48;;;6.72;;
70832;SDS011;58452;59.418;17.962;2022-07-19T06:53:34;9.40;;;5.85;;
70832;SDS011;58452;59.418;17.962;2022-07-19T06:56:00;8.40;;;6.20;;
70832;SDS011;58452;59.418;17.962;2022-07-19T06:58:25;9.95;;;6.45;;
70832;SDS011;58452;59.418;17.962;2022-07-19T07:00:51;9.48;;;4.95;;
70832;SDS011;58452;59.418;17.962;2022-07-19T07:03:19;9.73;;;6.90;;
70832;SDS011;58452;59.418;17.962;2022-07-19T07:05:45;8.63;;;6.00;;
70832;SDS011;58452;59.418;17.962;2022-07-19T07:08:10;7.97;;;5.95;;
70832;SDS011;58452;59.418;17.962;2022-07-19T07:10:36;7.57;;;5.82;;
70832;SDS011;58452;59.418;17.962;2022-07-19T07:13:02;7.03;;;5.43;;
70832;SDS011;58452;59.418;17.962;2022-07-19T07:15:27;7.82;;;5.95;;
70832;SDS011;58452;59.418;17.962;2022-07-19T07:17:53;5.47;;;4.95;;
70832;SDS011;58452;59.418;17.962;2022-07-19T07:20:19;9.43;;;5.72;;
70832;SDS011;58452;59.418;17.962;2022-07-19T07:22:44;5.28;;;4.63;;
70832;SDS011;58452;59.418;17.962;2022-07-19T07:25:09;7.90;;;5.35;;
70832;SDS011;58452;59.418;17.962;2022-07-19T07:27:35;5.55;;;5.05;;
70832;SDS011;58452;59.418;17.962;2022-07-19T07:30:00;7.40;;;5.10;;
70832;SDS011;58452;59.418;17.962;2022-07-19T07:32:26;6.25;;;4.95;;
70832;SDS011;58452;59.418;17.962;2022-07-19T07:34:52;5.35;;;4.72;;
70832;SDS011;58452;59.418;17.962;2022-07-19T07:37:19;3.65;;;3.35;;
70832;SDS011;58452;59.418;17.962;2022-07-19T07:39:44;3.47;;;3.17;;
70832;SDS011;58452;59.418;17.962;2022-07-19T07:42:09;4.13;;;3.60;;
70832;SDS011;58452;59.418;17.962;2022-07-19T07:44:35;4.60;;;3.08;;
70832;SDS011;58452;59.418;17.962;2022-07-19T07:47:00;5.28;;;3.28;;
70832;SDS011;58452;59.418;17.962;2022-07-19T07:49:25;5.15;;;2.85;;
70832;SDS011;58452;59.418;17.962;2022-07-19T07:51:51;3.78;;;2.72;;
70832;SDS011;58452;59.418;17.962;2022-07-19T07:54:16;3.42;;;2.72;;
70832;SDS011;58452;59.418;17.962;2022-07-19T07:56:43;4.20;;;3.33;;
70832;SDS011;58452;59.418;17.962;2022-07-19T07:59:08;4.07;;;2.25;;
70832;SDS011;58452;59.418;17.962;2022-07-19T08:01:34;2.33;;;2.05;;
70832;SDS011;58452;59.418;17.962;2022-07-19T08:03:59;2.75;;;2.10;;
70832;SDS011;58452;59.418;17.962;2022-07-19T08:06:25;6.03;;;2.28;;
70832;SDS011;58452;59.418;17.962;2022-07-19T08:08:50;1.90;;;1.63;;
70832;SDS011;58452;59.418;17.962;2022-07-19T08:11:15;3.38;;;2.40;;
70832;SDS011;58452;59.418;17.962;2022-07-19T08:13:41;2.55;;;2.10;;
70832;SDS011;58452;59.418;17.962;2022-07-19T08:16:06;2.65;;;2.33;;
70832;SDS011;58452;59.418;17.962;2022-07-19T08:18:32;3.75;;;2.08;;
70832;SDS011;58452;59.418;17.962;2022-07-19T08:20:58;2.45;;;1.70;;
70832;SDS011;58452;59.418;17.962;2022-07-19T08:23:23;2.53;;;1.60;;
70832;SDS011;58452;59.418;17.962;2022-07-19T08:25:49;2.88;;;1.85;;
70832;SDS011;58452;59.418;17.962;2022-07-19T08:28:14;3.03;;;2.13;;
70832;SDS011;58452;59.418;17.962;2022-07-19T08:30:40;1.85;;;1.65;;
70832;SDS011;58452;59.418;17.962;2022-07-19T08:33:05;3.13;;;2.20;;
70832;SDS011;58452;59.418;17.962;2022-07-19T08:35:33;2.17;;;1.60;;
70832;SDS011;58452;59.418;17.962;2022-07-19T08:37:59;4.10;;;1.70;;
70832;SDS011;58452;59.418;17.962;2022-07-19T08:40:24;2.10;;;1.45;;
70832;SDS011;58452;59.418;17.962;2022-07-19T08:42:50;2.13;;;1.73;;
70832;SDS011;58452;59.418;17.962;2022-07-19T08:45:16;5.75;;;1.70;;
70832;SDS011;58452;59.418;17.962;2022-07-19T08:47:42;2.85;;;2.03;;
70832;SDS011;58452;59.418;17.962;2022-07-19T08:50:09;2.60;;;1.67;;
70832;SDS011;58452;59.418;17.962;2022-07-19T08:52:36;2.42;;;1.80;;
70832;SDS011;58452;59.418;17.962;2022-07-19T08:55:03;2.83;;;1.60;;
70832;SDS011;58452;59.418;17.962;2022-07-19T08:57:29;2.55;;;1.80;;
70832;SDS011;58452;59.418;17.962;2022-07-19T09:00:14;3.08;;;1.92;;
70832;SDS011;58452;59.418;17.962;2022-07-19T09:02:39;3.13;;;1.88;;
70832;SDS011;58452;59.418;17.962;2022-07-19T09:05:06;3.38;;;1.73;;
70832;SDS011;58452;59.418;17.962;2022-07-19T09:07:34;5.43;;;1.92;;
70832;SDS011;58452;59.418;17.962;2022-07-19T09:10:34;3.20;;;1.50;;
70832;SDS011;58452;59.418;17.962;2022-07-19T09:12:59;2.92;;;1.70;;
70832;SDS011;58452;59.418;17.962;2022-07-19T09:18:10;3.03;;;1.75;;
70832;SDS011;58452;59.418;17.962;2022-07-19T09:20:51;2.20;;;1.50;;
70832;SDS011;58452;59.418;17.962;2022-07-19T09:23:21;1.73;;;1.40;;
70832;SDS011;58452;59.418;17.962;2022-07-19T09:25:51;3.40;;;1.85;;
70832;SDS011;58452;59.418;17.962;2022-07-19T09:28:20;2.72;;;1.90;;
70832;SDS011;58452;59.418;17.962;2022-07-19T09:30:47;2.03;;;1.83;;
70832;SDS011;58452;59.418;17.962;2022-07-19T09:33:17;4.13;;;2.15;;
70832;SDS011;58452;59.418;17.962;2022-07-19T09:35:46;1.48;;;1.38;;
70832;SDS011;58452;59.418;17.962;2022-07-19T09:38:17;2.42;;;1.60;;
70832;SDS011;58452;59.418;17.962;2022-07-19T09:40:44;2.22;;;1.48;;
70832;SDS011;58452;59.418;17.962;2022-07-19T09:43:10;2.05;;;1.50;;
70832;SDS011;58452;59.418;17.962;2022-07-19T09:45:36;3.47;;;1.52;;
70832;SDS011;58452;59.418;17.962;2022-07-19T09:48:01;4.47;;;1.83;;
70832;SDS011;58452;59.418;17.962;2022-07-19T09:50:29;2.45;;;1.67;;
70832;SDS011;58452;59.418;17.962;2022-07-19T09:52:55;1.90;;;1.65;;
70832;SDS011;58452;59.418;17.962;2022-07-19T09:55:27;2.00;;;1.23;;
70832;SDS011;58452;59.418;17.962;2022-07-19T09:57:53;1.80;;;1.45;;
70832;SDS011;58452;59.418;17.962;2022-07-19T10:00:22;4.70;;;1.50;;
70832;SDS011;58452;59.418;17.962;2022-07-19T10:02:50;1.45;;;1.33;;
70832;SDS011;58452;59.418;17.962;2022-07-19T10:05:18;2.28;;;1.42;;
70832;SDS011;58452;59.418;17.962;2022-07-19T10:07:44;1.60;;;1.20;;
70832;SDS011;58452;59.418;17.962;2022-07-19T10:10:13;2.22;;;1.55;;
70832;SDS011;58452;59.418;17.962;2022-07-19T10:12:41;1.58;;;1.48;;
70832;SDS011;58452;59.418;17.962;2022-07-19T10:15:09;1.58;;;1.20;;
70832;SDS011;58452;59.418;17.962;2022-07-19T10:17:37;3.20;;;1.50;;
70832;SDS011;58452;59.418;17.962;2022-07-19T10:20:14;1.58;;;1.30;;
70832;SDS011;58452;59.418;17.962;2022-07-19T10:22:41;2.45;;;1.25;;
70832;SDS011;58452;59.418;17.962;2022-07-19T10:25:12;3.67;;;1.27;;
70832;SDS011;58452;59.418;17.962;2022-07-19T10:27:39;2.72;;;1.05;;
70832;SDS011;58452;59.418;17.962;2022-07-19T10:32:32;2.58;;;1.42;;
70832;SDS011;58452;59.418;17.962;2022-07-19T10:37:47;1.33;;;1.10;;
70832;SDS011;58452;59.418;17.962;2022-07-19T10:45:34;1.60;;;1.00;;
70832;SDS011;58452;59.418;17.962;2022-07-19T10:48:02;1.35;;;1.13;;
70832;SDS011;58452;59.418;17.962;2022-07-19T10:50:52;2.58;;;1.48;;
70832;SDS011;58452;59.418;17.962;2022-07-19T10:56:16;1.88;;;1.05;;
70832;SDS011;58452;59.418;17.962;2022-07-19T10:58:50;1.35;;;1.10;;
70832;SDS011;58452;59.418;17.962;2022-07-19T11:01:27;4.10;;;1.85;;
70832;SDS011;58452;59.418;17.962;2022-07-19T11:03:53;1.67;;;1.20;;
70832;SDS011;58452;59.418;17.962;2022-07-19T11:06:39;1.58;;;1.15;;
70832;SDS011;58452;59.418;17.962;2022-07-19T11:09:04;1.38;;;1.00;;
70832;SDS011;58452;59.418;17.962;2022-07-19T11:11:30;4.85;;;1.52;;
70832;SDS011;58452;59.418;17.962;2022-07-19T11:13:56;1.58;;;1.10;;
70832;SDS011;58452;59.418;17.962;2022-07-19T11:16:27;2.65;;;1.40;;
70832;SDS011;58452;59.418;17.962;2022-07-19T11:19:06;1.80;;;1.02;;
70832;SDS011;58452;59.418;17.962;2022-07-19T11:21:33;1.27;;;1.17;;
70832;SDS011;58452;59.418;17.962;2022-07-19T11:24:01;1.30;;;1.20;;
70832;SDS011;58452;59.418;17.962;2022-07-19T11:26:28;5.25;;;1.90;;
70832;SDS011;58452;59.418;17.962;2022-07-19T11:29:00;2.40;;;1.15;;
70832;SDS011;58452;59.418;17.962;2022-07-19T11:31:26;1.13;;;1.00;;
70832;SDS011;58452;59.418;17.962;2022-07-19T11:33:52;3.42;;;1.08;;
70832;SDS011;58452;59.418;17.962;2022-07-19T11:36:21;1.20;;;0.98;;
70832;SDS011;58452;59.418;17.962;2022-07-19T11:38:48;1.20;;;1.10;;
70832;SDS011;58452;59.418;17.962;2022-07-19T11:41:17;5.03;;;0.65;;
70832;SDS011;58452;59.418;17.962;2022-07-19T11:43:55;1.38;;;0.73;;
70832;SDS011;58452;59.418;17.962;2022-07-19T11:46:41;0.77;;;0.77;;
70832;SDS011;58452;59.418;17.962;2022-07-19T11:49:07;0.95;;;0.90;;
70832;SDS011;58452;59.418;17.962;2022-07-19T11:51:34;0.95;;;0.77;;
70832;SDS011;58452;59.418;17.962;2022-07-19T11:54:00;1.52;;;0.80;;
70832;SDS011;58452;59.418;17.962;2022-07-19T11:56:28;2.55;;;1.45;;
70832;SDS011;58452;59.418;17.962;2022-07-19T11:58:56;1.08;;;0.98;;
70832;SDS011;58452;59.418;17.962;2022-07-19T12:01:24;2.25;;;1.25;;
70832;SDS011;58452;59.418;17.962;2022-07-19T12:03:58;1.33;;;1.10;;
70832;SDS011;58452;59.418;17.962;2022-07-19T12:06:44;2.33;;;0.88;;
70832;SDS011;58452;59.418;17.962;2022-07-19T12:09:18;1.58;;;0.70;;
70832;SDS011;58452;59.418;17.962;2022-07-19T12:14:22;1.35;;;0.98;;
70832;SDS011;58452;59.418;17.962;2022-07-19T12:16:50;2.40;;;1.15;;
70832;SDS011;58452;59.418;17.962;2022-07-19T12:19:34;3.13;;;0.88;;
70832;SDS011;58452;59.418;17.962;2022-07-19T12:22:00;1.55;;;1.20;;
70832;SDS011;58452;59.418;17.962;2022-07-19T12:24:26;4.78;;;1.35;;
70832;SDS011;58452;59.418;17.962;2022-07-19T12:27:03;3.47;;;1.30;;
70832;SDS011;58452;59.418;17.962;2022-07-19T12:32:09;2.45;;;0.80;;
70832;SDS011;58452;59.418;17.962;2022-07-19T12:34:49;4.25;;;1.13;;
70832;SDS011;58452;59.418;17.962;2022-07-19T12:37:27;3.70;;;1.40;;
70832;SDS011;58452;59.418;17.962;2022-07-19T12:42:41;4.85;;;1.20;;
70832;SDS011;58452;59.418;17.962;2022-07-19T12:45:12;1.55;;;1.42;;
70832;SDS011;58452;59.418;17.962;2022-07-19T12:47:40;0.70;;;0.60;;
70832;SDS011;58452;59.418;17.962;2022-07-19T12:50:07;0.85;;;0.80;;
70832;SDS011;58452;59.418;17.962;2022-07-19T12:52:33;1.05;;;0.80;;
70832;SDS011;58452;59.418;17.962;2022-07-19T12:54:59;0.82;;;0.80;;
70832;SDS011;58452;59.418;17.962;2022-07-19T12:57:24;1.23;;;0.93;;
70832;SDS011;58452;59.418;17.962;2022-07-19T12:59:50;3.72;;;1.42;;
70832;SDS011;58452;59.418;17.962;2022-07-19T13:02:16;0.63;;;0.63;;
70832;SDS011;58452;59.418;17.962;2022-07-19T13:04:43;1.58;;;0.93;;
70832;SDS011;58452;59.418;17.962;2022-07-19T13:07:09;2.58;;;0.95;;
70832;SDS011;58452;59.418;17.962;2022-07-19T13:09:36;1.38;;;1.00;;
70832;SDS011;58452;59.418;17.962;2022-07-19T13:12:03;2.50;;;1.00;;
70832;SDS011;58452;59.418;17.962;2022-07-19T13:14:30;1.50;;;0.93;;
70832;SDS011;58452;59.418;17.962;2022-07-19T13:16:56;1.05;;;0.90;;
70832;SDS011;58452;59.418;17.962;2022-07-19T13:19:22;1.60;;;1.20;;
70832;SDS011;58452;59.418;17.962;2022-07-19T13:21:47;1.35;;;0.90;;
70832;SDS011;58452;59.418;17.962;2022-07-19T13:24:13;3.75;;;1.52;;
70832;SDS011;58452;59.418;17.962;2022-07-19T13:26:39;2.63;;;1.20;;
70832;SDS011;58452;59.418;17.962;2022-07-19T13:29:04;1.60;;;1.02;;
70832;SDS011;58452;59.418;17.962;2022-07-19T13:31:30;1.95;;;1.10;;
70832;SDS011;58452;59.418;17.962;2022-07-19T13:33:55;2.38;;;0.80;;
70832;SDS011;58452;59.418;17.962;2022-07-19T13:36:21;1.83;;;1.05;;
70832;SDS011;58452;59.418;17.962;2022-07-19T13:38:46;1.35;;;0.60;;
70832;SDS011;58452;59.418;17.962;2022-07-19T13:41:13;2.70;;;0.95;;
70832;SDS011;58452;59.418;17.962;2022-07-19T13:43:39;1.70;;;1.05;;
70832;SDS011;58452;59.418;17.962;2022-07-19T13:46:04;1.88;;;1.30;;
70832;SDS011;58452;59.418;17.962;2022-07-19T13:48:30;1.65;;;0.88;;
70832;SDS011;58452;59.418;17.962;2022-07-19T13:50:55;3.05;;;0.98;;
70832;SDS011;58452;59.418;17.962;2022-07-19T13:53:21;3.35;;;0.80;;
70832;SDS011;58452;59.418;17.962;2022-07-19T13:55:46;1.85;;;0.90;;
70832;SDS011;58452;59.418;17.962;2022-07-19T13:58:12;1.00;;;0.82;;
70832;SDS011;58452;59.418;17.962;2022-07-19T14:00:37;2.38;;;1.10;;
70832;SDS011;58452;59.418;17.962;2022-07-19T14:03:03;2.15;;;1.08;;
70832;SDS011;58452;59.418;17.962;2022-07-19T14:05:28;1.27;;;0.70;;
70832;SDS011;58452;59.418;17.962;2022-07-19T14:07:54;1.98;;;0.95;;
70832;SDS011;58452;59.418;17.962;2022-07-19T14:10:19;1.67;;;0.90;;
70832;SDS011;58452;59.418;17.962;2022-07-19T14:12:45;2.65;;;0.90;;
70832;SDS011;58452;59.418;17.962;2022-07-19T14:15:10;2.58;;;0.60;;
70832;SDS011;58452;59.418;17.962;2022-07-19T14:17:35;2.13;;;1.30;;
70832;SDS011;58452;59.418;17.962;2022-07-19T14:20:02;2.38;;;0.82;;
70832;SDS011;58452;59.418;17.962;2022-07-19T14:22:28;1.23;;;0.93;;
70832;SDS011;58452;59.418;17.962;2022-07-19T14:24:55;2.10;;;0.70;;
70832;SDS011;58452;59.418;17.962;2022-07-19T14:27:21;1.08;;;0.80;;
70832;SDS011;58452;59.418;17.962;2022-07-19T14:29:46;4.45;;;1.05;;
70832;SDS011;58452;59.418;17.962;2022-07-19T14:32:11;3.47;;;0.95;;
70832;SDS011;58452;59.418;17.962;2022-07-19T14:34:37;1.05;;;0.80;;
70832;SDS011;58452;59.418;17.962;2022-07-19T14:37:04;4.80;;;1.02;;
70832;SDS011;58452;59.418;17.962;2022-07-19T14:39:31;1.95;;;0.88;;
70832;SDS011;58452;59.418;17.962;2022-07-19T14:41:56;2.65;;;1.55;;
70832;SDS011;58452;59.418;17.962;2022-07-19T14:44:25;1.45;;;0.70;;
70832;SDS011;58452;59.418;17.962;2022-07-19T14:46:50;0.80;;;0.80;;
70832;SDS011;58452;59.418;17.962;2022-07-19T14:49:16;0.57;;;0.57;;
70832;SDS011;58452;59.418;17.962;2022-07-19T14:51:42;1.13;;;0.70;;